Kailua, HI

6:47 AM HST on September 30, 2014 (GMT -1000)
Kailua Beach | Change Station
CLOSE
Current Station
Personal Weather Station
Location: Kailua, HI
Elevation: 0 ft
Nearby Weather Stations

Elev 0 ft 21.40 °N, 157.73 °W | Updated 7 minutes ago

Clear
Clear
74.0 °F
Feels Like 71 °F
N
0.0
Wind Variable Wind from SW
Gusts 0.0 mph

Today
High -- | Low -- °F
--% Chance of Precip.
Yesterday
High -- | Low -- °F
Precip. -- in
6:21 AM 6:19 PM
Waxing Crescent, 38% visible
Pressure 29.92 in
Visibility 10.0 miles
Clouds Clear
Heat Index 71 °F
Dew Point 72 °F
Humidity 94%
Rainfall 0.00 in
Snow Depth Not available.
UV 0 out of 12
Pollen Not available.
Air Quality Not available.
Flu Activity Not available.
METAR PHNG 301557Z 00000KT 10SM CLR 24/23 A2993 RMK AO2 SLP132 T02440228 $

More Conditions Fewer Conditions

Pressure 29.92 in
Visibility 10.0 miles
Clouds Clear
Heat Index 71 °F
Dew Point 72 °F
Humidity 94%
Rainfall 0.00 in
Snow Depth Not available.
UV 0 out of 12
Pollen Not available.
Air Quality Not available.
Flu Activity Not available.
METAR PHNG 301557Z 00000KT 10SM CLR 24/23 A2993 RMK AO2 SLP132 T02440228 $

More Conditions Fewer Conditions

10-Day Weather Forecast

Almanac

Astronomy

Sep. 30, 2014 Rise Set
Actual Time 6:21 AM HST 6:19 PM HST
Civil Twilight 5:59 AM HST 6:41 PM HST
Nautical Twilight 5:33 AM HST 7:07 PM HST
Astronomical Twilight 5:08 AM HST 7:33 PM HST
Moon 12:08 PM HST 11:32 PM HST
Length of Visible Light 12h 41m
Length of Day
11h 57m
Tomorrow will be 1m 13s shorter.
Waxing Crescent, 38% of the Moon is Illuminated
Today
Waxing Crescent
Oct 1
First Quarter
Oct 8
Full
Oct 15
Last Quarter
Oct 23
New

Today's Extremes

State Highs State Lows

Community

WunderPhotos

Upload Photos

1,757,682 photos uploaded!

Nearby

Snow Depth

Station Depth Elevation
No new snow has been reported.

Earthquake Activity

City Distance Mag. Time & Date
No recent earthquake activity has been reported nearby.
Minimum magnitude displayed is 2.5.

Coastal Water Temperatures

Place Temperature
No Stations Reporting

Nearby Weather Stations